CheckWX is a tool to help pilots better visualize weather data.  It is not intended as a substitute for an official pre-flight weather briefing.

01:04:52 UTC

KBAK METAR
Columbus Municipal Airport
Columbus, Indiana, USA
Current

20 mins ago

KBAK 240045Z 14011KT 10SM SCT120 12/10 A2964
Observed
Feb-24 @ 00:45 UTC
Wind
  • 140° at 11 KTS
Visibility
10 SM
Flight Rules
VFR
Cloud Levels
  • Scattered at 12,000' AGL
Temperature
12°C / 54°F
Dewpoint
10°C / 50°F
Humidity
88%
Altimeter
29.64" Hg
Pressure
1003.72 hPa
Previous

1 hour ago

KBAK 232345Z 15012KT 10SM SKC 12/09 A2968
Observed
Feb-23 @ 23:45 UTC
Wind
  • 150° at 12 KTS
Visibility
10 SM
Flight Rules
VFR
Cloud Levels
  • Clear skies
Temperature
12°C / 54°F
Dewpoint
C / 48°F
Humidity
82%
Altimeter
29.68" Hg
Pressure
1005.12 hPa
Previous

2 hours ago

KBAK 232325Z 15017G26KT 10SM SCT006 SCT018 BKN110 11/09 A2969 RMK RA E23
Observed
Feb-23 @ 23:25 UTC
Wind
  • 150° at 17 KTS
  • Gusting to 26 KTS
Visibility
10 SM
Flight Rules
VFR
Cloud Levels
  • Scattered at 600' AGL
  • Scattered at 1,800' AGL
  • Broken at 11,000' AGL
Temperature
11°C / 52°F
Dewpoint
C / 48°F
Humidity
88%
Altimeter
29.69" Hg
Pressure
1005.42 hPa